sensor_id;sensor_type;location;lat;lon;timestamp;P1;durP1;ratioP1;P2;durP2;ratioP2
59089;SDS011;44878;50.102;18.982;2023-02-28T00:01:18;18.63;;;14.97;;
59089;SDS011;44878;50.102;18.982;2023-02-28T00:03:44;19.33;;;15.00;;
59089;SDS011;44878;50.102;18.982;2023-02-28T00:06:10;19.60;;;15.33;;
59089;SDS011;44878;50.102;18.982;2023-02-28T00:08:36;20.90;;;16.23;;
59089;SDS011;44878;50.102;18.982;2023-02-28T00:11:03;21.67;;;15.80;;
59089;SDS011;44878;50.102;18.982;2023-02-28T00:13:30;20.30;;;16.73;;
59089;SDS011;44878;50.102;18.982;2023-02-28T00:16:00;22.53;;;17.50;;
59089;SDS011;44878;50.102;18.982;2023-02-28T00:18:26;23.13;;;17.70;;
59089;SDS011;44878;50.102;18.982;2023-02-28T00:20:52;20.23;;;17.03;;
59089;SDS011;44878;50.102;18.982;2023-02-28T00:23:17;22.20;;;18.40;;
59089;SDS011;44878;50.102;18.982;2023-02-28T00:25:43;21.63;;;17.30;;
59089;SDS011;44878;50.102;18.982;2023-02-28T00:28:10;23.57;;;18.10;;
59089;SDS011;44878;50.102;18.982;2023-02-28T00:30:35;24.23;;;18.60;;
59089;SDS011;44878;50.102;18.982;2023-02-28T00:33:01;27.13;;;20.33;;
59089;SDS011;44878;50.102;18.982;2023-02-28T00:35:27;22.87;;;19.30;;
59089;SDS011;44878;50.102;18.982;2023-02-28T00:37:53;26.33;;;20.63;;
59089;SDS011;44878;50.102;18.982;2023-02-28T00:40:19;28.53;;;21.50;;
59089;SDS011;44878;50.102;18.982;2023-02-28T00:42:45;23.87;;;19.83;;
59089;SDS011;44878;50.102;18.982;2023-02-28T00:45:10;24.60;;;19.07;;
59089;SDS011;44878;50.102;18.982;2023-02-28T00:47:36;25.03;;;19.03;;
59089;SDS011;44878;50.102;18.982;2023-02-28T00:50:02;22.93;;;18.60;;
59089;SDS011;44878;50.102;18.982;2023-02-28T00:52:28;25.03;;;18.90;;
59089;SDS011;44878;50.102;18.982;2023-02-28T00:54:54;26.87;;;22.10;;
59089;SDS011;44878;50.102;18.982;2023-02-28T00:57:22;43.75;;;34.08;;
59089;SDS011;44878;50.102;18.982;2023-02-28T00:59:48;35.87;;;29.20;;
59089;SDS011;44878;50.102;18.982;2023-02-28T01:02:14;37.87;;;31.03;;
59089;SDS011;44878;50.102;18.982;2023-02-28T01:04:40;37.03;;;30.43;;
59089;SDS011;44878;50.102;18.982;2023-02-28T01:07:06;42.30;;;32.17;;
59089;SDS011;44878;50.102;18.982;2023-02-28T01:09:32;35.30;;;29.93;;
59089;SDS011;44878;50.102;18.982;2023-02-28T01:11:57;34.90;;;27.60;;
59089;SDS011;44878;50.102;18.982;2023-02-28T01:14:23;28.43;;;23.73;;
59089;SDS011;44878;50.102;18.982;2023-02-28T01:16:49;29.00;;;23.30;;
59089;SDS011;44878;50.102;18.982;2023-02-28T01:19:15;33.50;;;27.53;;
59089;SDS011;44878;50.102;18.982;2023-02-28T01:21:41;33.33;;;26.87;;
59089;SDS011;44878;50.102;18.982;2023-02-28T01:24:07;33.67;;;24.33;;
59089;SDS011;44878;50.102;18.982;2023-02-28T01:26:32;31.27;;;23.83;;
59089;SDS011;44878;50.102;18.982;2023-02-28T01:28:58;31.77;;;23.20;;
59089;SDS011;44878;50.102;18.982;2023-02-28T01:31:24;29.33;;;22.37;;
59089;SDS011;44878;50.102;18.982;2023-02-28T01:33:50;28.63;;;21.23;;
59089;SDS011;44878;50.102;18.982;2023-02-28T01:36:17;24.03;;;20.40;;
59089;SDS011;44878;50.102;18.982;2023-02-28T01:38:44;24.88;;;20.73;;
59089;SDS011;44878;50.102;18.982;2023-02-28T01:41:15;25.10;;;20.47;;
59089;SDS011;44878;50.102;18.982;2023-02-28T01:46:10;24.60;;;20.13;;
59089;SDS011;44878;50.102;18.982;2023-02-28T01:48:37;24.53;;;19.60;;
59089;SDS011;44878;50.102;18.982;2023-02-28T01:51:15;24.65;;;19.45;;
59089;SDS011;44878;50.102;18.982;2023-02-28T01:53:44;25.90;;;20.43;;
59089;SDS011;44878;50.102;18.982;2023-02-28T01:56:12;25.80;;;19.43;;
59089;SDS011;44878;50.102;18.982;2023-02-28T01:58:52;25.40;;;20.43;;
59089;SDS011;44878;50.102;18.982;2023-02-28T02:01:18;24.17;;;20.70;;
59089;SDS011;44878;50.102;18.982;2023-02-28T02:03:49;22.30;;;19.27;;
59089;SDS011;44878;50.102;18.982;2023-02-28T02:06:28;26.07;;;21.03;;
59089;SDS011;44878;50.102;18.982;2023-02-28T02:08:55;22.63;;;19.07;;
59089;SDS011;44878;50.102;18.982;2023-02-28T02:11:21;23.87;;;20.77;;
59089;SDS011;44878;50.102;18.982;2023-02-28T02:27:20;28.13;;;23.47;;
59089;SDS011;44878;50.102;18.982;2023-02-28T02:32:14;28.67;;;24.23;;
59089;SDS011;44878;50.102;18.982;2023-02-28T02:40:08;30.13;;;26.50;;
59089;SDS011;44878;50.102;18.982;2023-02-28T02:47:40;31.43;;;25.17;;
59089;SDS011;44878;50.102;18.982;2023-02-28T02:50:07;27.73;;;24.40;;
59089;SDS011;44878;50.102;18.982;2023-02-28T02:52:35;31.88;;;26.55;;
59089;SDS011;44878;50.102;18.982;2023-02-28T02:55:02;29.47;;;25.67;;
59089;SDS011;44878;50.102;18.982;2023-02-28T02:57:30;29.07;;;24.97;;
59089;SDS011;44878;50.102;18.982;2023-02-28T02:59:57;31.07;;;26.57;;
59089;SDS011;44878;50.102;18.982;2023-02-28T03:02:24;28.77;;;24.43;;
59089;SDS011;44878;50.102;18.982;2023-02-28T03:04:52;28.70;;;24.52;;
59089;SDS011;44878;50.102;18.982;2023-02-28T03:07:19;28.08;;;24.70;;
59089;SDS011;44878;50.102;18.982;2023-02-28T03:09:52;28.13;;;23.40;;
59089;SDS011;44878;50.102;18.982;2023-02-28T03:12:18;25.60;;;21.70;;
59089;SDS011;44878;50.102;18.982;2023-02-28T03:22:45;26.83;;;22.07;;
59089;SDS011;44878;50.102;18.982;2023-02-28T03:25:31;27.47;;;22.60;;
59089;SDS011;44878;50.102;18.982;2023-02-28T03:30:47;25.27;;;21.70;;
59089;SDS011;44878;50.102;18.982;2023-02-28T03:33:21;24.60;;;20.60;;
59089;SDS011;44878;50.102;18.982;2023-02-28T03:35:53;23.33;;;20.27;;
59089;SDS011;44878;50.102;18.982;2023-02-28T03:43:34;24.57;;;19.83;;
59089;SDS011;44878;50.102;18.982;2023-02-28T03:46:01;27.83;;;21.93;;
59089;SDS011;44878;50.102;18.982;2023-02-28T03:48:31;25.93;;;21.20;;
59089;SDS011;44878;50.102;18.982;2023-02-28T03:50:59;25.33;;;19.97;;
59089;SDS011;44878;50.102;18.982;2023-02-28T03:53:33;25.93;;;20.53;;
59089;SDS011;44878;50.102;18.982;2023-02-28T03:56:08;24.97;;;19.67;;
59089;SDS011;44878;50.102;18.982;2023-02-28T04:01:05;24.77;;;19.03;;
59089;SDS011;44878;50.102;18.982;2023-02-28T04:03:34;23.80;;;19.00;;
59089;SDS011;44878;50.102;18.982;2023-02-28T04:06:01;24.33;;;19.00;;
59089;SDS011;44878;50.102;18.982;2023-02-28T04:08:27;21.60;;;18.10;;
59089;SDS011;44878;50.102;18.982;2023-02-28T04:10:56;21.80;;;18.08;;
59089;SDS011;44878;50.102;18.982;2023-02-28T04:13:23;26.13;;;18.70;;
59089;SDS011;44878;50.102;18.982;2023-02-28T04:15:49;23.50;;;19.17;;
59089;SDS011;44878;50.102;18.982;2023-02-28T04:18:14;24.70;;;20.20;;
59089;SDS011;44878;50.102;18.982;2023-02-28T04:20:40;27.13;;;21.73;;
59089;SDS011;44878;50.102;18.982;2023-02-28T04:23:06;26.53;;;20.67;;
59089;SDS011;44878;50.102;18.982;2023-02-28T04:25:32;26.37;;;21.70;;
59089;SDS011;44878;50.102;18.982;2023-02-28T04:27:58;24.30;;;20.37;;
59089;SDS011;44878;50.102;18.982;2023-02-28T04:30:24;28.77;;;21.20;;
59089;SDS011;44878;50.102;18.982;2023-02-28T04:32:49;27.57;;;21.47;;
59089;SDS011;44878;50.102;18.982;2023-02-28T04:35:15;26.17;;;21.03;;
59089;SDS011;44878;50.102;18.982;2023-02-28T04:37:41;28.80;;;21.43;;
59089;SDS011;44878;50.102;18.982;2023-02-28T04:40:07;30.47;;;23.73;;
59089;SDS011;44878;50.102;18.982;2023-02-28T04:42:33;31.53;;;24.27;;
59089;SDS011;44878;50.102;18.982;2023-02-28T04:45:04;27.60;;;23.43;;
59089;SDS011;44878;50.102;18.982;2023-02-28T04:47:30;29.90;;;24.73;;
59089;SDS011;44878;50.102;18.982;2023-02-28T04:49:56;30.17;;;22.73;;
59089;SDS011;44878;50.102;18.982;2023-02-28T04:52:22;28.50;;;23.17;;
59089;SDS011;44878;50.102;18.982;2023-02-28T04:54:48;26.30;;;21.37;;
59089;SDS011;44878;50.102;18.982;2023-02-28T04:57:14;26.57;;;21.63;;
59089;SDS011;44878;50.102;18.982;2023-02-28T04:59:40;31.03;;;24.23;;
59089;SDS011;44878;50.102;18.982;2023-02-28T05:02:06;27.10;;;21.27;;
59089;SDS011;44878;50.102;18.982;2023-02-28T05:04:33;30.33;;;22.97;;
59089;SDS011;44878;50.102;18.982;2023-02-28T05:06:59;31.95;;;25.15;;
59089;SDS011;44878;50.102;18.982;2023-02-28T05:09:25;31.27;;;24.60;;
59089;SDS011;44878;50.102;18.982;2023-02-28T05:11:51;31.83;;;24.90;;
59089;SDS011;44878;50.102;18.982;2023-02-28T05:14:17;36.87;;;27.67;;
59089;SDS011;44878;50.102;18.982;2023-02-28T05:16:43;38.37;;;30.00;;
59089;SDS011;44878;50.102;18.982;2023-02-28T05:19:09;33.17;;;26.07;;
59089;SDS011;44878;50.102;18.982;2023-02-28T05:21:41;34.60;;;28.90;;
59089;SDS011;44878;50.102;18.982;2023-02-28T05:24:10;34.90;;;27.80;;
59089;SDS011;44878;50.102;18.982;2023-02-28T05:26:38;35.00;;;29.07;;
59089;SDS011;44878;50.102;18.982;2023-02-28T05:31:30;39.10;;;30.13;;
59089;SDS011;44878;50.102;18.982;2023-02-28T05:33:56;36.63;;;28.63;;
59089;SDS011;44878;50.102;18.982;2023-02-28T05:36:22;42.53;;;31.17;;
59089;SDS011;44878;50.102;18.982;2023-02-28T05:38:49;38.40;;;30.57;;
59089;SDS011;44878;50.102;18.982;2023-02-28T05:41:15;38.33;;;29.37;;
59089;SDS011;44878;50.102;18.982;2023-02-28T05:43:41;35.50;;;29.73;;
59089;SDS011;44878;50.102;18.982;2023-02-28T05:46:08;39.90;;;30.20;;
59089;SDS011;44878;50.102;18.982;2023-02-28T05:48:35;38.50;;;30.00;;
59089;SDS011;44878;50.102;18.982;2023-02-28T05:51:02;40.63;;;31.88;;
59089;SDS011;44878;50.102;18.982;2023-02-28T05:53:28;42.00;;;33.23;;
59089;SDS011;44878;50.102;18.982;2023-02-28T05:55:54;41.93;;;34.13;;
59089;SDS011;44878;50.102;18.982;2023-02-28T05:58:21;39.50;;;32.37;;
59089;SDS011;44878;50.102;18.982;2023-02-28T06:00:47;40.77;;;32.33;;
59089;SDS011;44878;50.102;18.982;2023-02-28T06:03:13;38.27;;;32.93;;
59089;SDS011;44878;50.102;18.982;2023-02-28T06:05:38;41.13;;;31.40;;
59089;SDS011;44878;50.102;18.982;2023-02-28T06:08:04;37.73;;;32.00;;
59089;SDS011;44878;50.102;18.982;2023-02-28T06:10:36;38.13;;;30.73;;
59089;SDS011;44878;50.102;18.982;2023-02-28T06:13:03;36.80;;;29.00;;
59089;SDS011;44878;50.102;18.982;2023-02-28T06:15:29;39.70;;;30.87;;
59089;SDS011;44878;50.102;18.982;2023-02-28T06:17:56;41.33;;;32.60;;
59089;SDS011;44878;50.102;18.982;2023-02-28T06:20:22;39.47;;;30.27;;
59089;SDS011;44878;50.102;18.982;2023-02-28T06:22:48;37.77;;;30.43;;
59089;SDS011;44878;50.102;18.982;2023-02-28T06:25:16;37.95;;;31.95;;
59089;SDS011;44878;50.102;18.982;2023-02-28T06:27:42;40.10;;;32.23;;
59089;SDS011;44878;50.102;18.982;2023-02-28T06:30:09;42.47;;;33.53;;
59089;SDS011;44878;50.102;18.982;2023-02-28T06:32:35;40.63;;;30.30;;
59089;SDS011;44878;50.102;18.982;2023-02-28T06:35:02;89.43;;;66.87;;
59089;SDS011;44878;50.102;18.982;2023-02-28T06:37:28;41.10;;;32.87;;
59089;SDS011;44878;50.102;18.982;2023-02-28T06:39:54;43.40;;;34.67;;
59089;SDS011;44878;50.102;18.982;2023-02-28T06:42:22;35.90;;;30.33;;
59089;SDS011;44878;50.102;18.982;2023-02-28T06:44:50;39.90;;;30.27;;
59089;SDS011;44878;50.102;18.982;2023-02-28T06:47:16;40.70;;;31.33;;
59089;SDS011;44878;50.102;18.982;2023-02-28T06:49:42;40.93;;;30.23;;
59089;SDS011;44878;50.102;18.982;2023-02-28T06:52:10;42.17;;;30.87;;
59089;SDS011;44878;50.102;18.982;2023-02-28T06:54:36;38.20;;;31.10;;
59089;SDS011;44878;50.102;18.982;2023-02-28T06:57:02;44.73;;;29.87;;
59089;SDS011;44878;50.102;18.982;2023-02-28T06:59:28;39.83;;;30.27;;
59089;SDS011;44878;50.102;18.982;2023-02-28T07:01:54;38.63;;;31.23;;
59089;SDS011;44878;50.102;18.982;2023-02-28T07:04:20;40.87;;;33.07;;
59089;SDS011;44878;50.102;18.982;2023-02-28T07:06:47;39.17;;;31.97;;
59089;SDS011;44878;50.102;18.982;2023-02-28T07:09:12;37.50;;;31.20;;
59089;SDS011;44878;50.102;18.982;2023-02-28T07:11:39;41.07;;;32.77;;
59089;SDS011;44878;50.102;18.982;2023-02-28T07:14:06;41.50;;;33.87;;
59089;SDS011;44878;50.102;18.982;2023-02-28T07:16:32;40.17;;;33.23;;
59089;SDS011;44878;50.102;18.982;2023-02-28T07:18:58;39.33;;;31.67;;
59089;SDS011;44878;50.102;18.982;2023-02-28T07:21:24;37.63;;;32.33;;
59089;SDS011;44878;50.102;18.982;2023-02-28T07:23:50;41.60;;;33.10;;
59089;SDS011;44878;50.102;18.982;2023-02-28T07:26:17;41.13;;;32.30;;
59089;SDS011;44878;50.102;18.982;2023-02-28T07:28:44;39.10;;;30.60;;
59089;SDS011;44878;50.102;18.982;2023-02-28T07:31:10;35.70;;;30.23;;
59089;SDS011;44878;50.102;18.982;2023-02-28T07:33:36;39.30;;;30.93;;
59089;SDS011;44878;50.102;18.982;2023-02-28T07:36:03;39.07;;;31.53;;
59089;SDS011;44878;50.102;18.982;2023-02-28T07:38:29;38.63;;;31.53;;
59089;SDS011;44878;50.102;18.982;2023-02-28T07:40:55;36.37;;;31.23;;
59089;SDS011;44878;50.102;18.982;2023-02-28T07:43:21;32.87;;;28.97;;
59089;SDS011;44878;50.102;18.982;2023-02-28T07:45:47;37.10;;;31.87;;
59089;SDS011;44878;50.102;18.982;2023-02-28T07:48:13;36.23;;;30.03;;
59089;SDS011;44878;50.102;18.982;2023-02-28T07:50:39;34.60;;;30.90;;
59089;SDS011;44878;50.102;18.982;2023-02-28T07:53:04;42.70;;;31.40;;
59089;SDS011;44878;50.102;18.982;2023-02-28T07:55:30;38.23;;;32.73;;
59089;SDS011;44878;50.102;18.982;2023-02-28T07:57:56;40.30;;;35.00;;
59089;SDS011;44878;50.102;18.982;2023-02-28T08:00:23;37.80;;;33.10;;
59089;SDS011;44878;50.102;18.982;2023-02-28T08:02:48;38.20;;;33.73;;
59089;SDS011;44878;50.102;18.982;2023-02-28T08:05:15;38.40;;;31.07;;
59089;SDS011;44878;50.102;18.982;2023-02-28T08:07:41;38.00;;;32.30;;
59089;SDS011;44878;50.102;18.982;2023-02-28T08:10:07;40.23;;;33.47;;
59089;SDS011;44878;50.102;18.982;2023-02-28T08:15:01;39.20;;;33.00;;
59089;SDS011;44878;50.102;18.982;2023-02-28T08:17:26;38.50;;;31.93;;
59089;SDS011;44878;50.102;18.982;2023-02-28T08:19:52;43.37;;;32.00;;
59089;SDS011;44878;50.102;18.982;2023-02-28T08:22:18;40.57;;;31.03;;
59089;SDS011;44878;50.102;18.982;2023-02-28T08:24:44;42.23;;;32.23;;
59089;SDS011;44878;50.102;18.982;2023-02-28T08:27:10;36.97;;;30.67;;
59089;SDS011;44878;50.102;18.982;2023-02-28T08:29:36;29.50;;;26.00;;
59089;SDS011;44878;50.102;18.982;2023-02-28T08:32:02;36.43;;;25.80;;
59089;SDS011;44878;50.102;18.982;2023-02-28T08:34:28;32.70;;;24.90;;
59089;SDS011;44878;50.102;18.982;2023-02-28T08:36:54;31.80;;;24.97;;
59089;SDS011;44878;50.102;18.982;2023-02-28T08:39:20;32.63;;;26.47;;
59089;SDS011;44878;50.102;18.982;2023-02-28T08:41:45;39.70;;;27.87;;
59089;SDS011;44878;50.102;18.982;2023-02-28T08:44:11;33.87;;;26.33;;
59089;SDS011;44878;50.102;18.982;2023-02-28T08:46:37;27.20;;;23.83;;
59089;SDS011;44878;50.102;18.982;2023-02-28T08:49:03;31.37;;;25.50;;
59089;SDS011;44878;50.102;18.982;2023-02-28T08:51:29;30.87;;;23.93;;
59089;SDS011;44878;50.102;18.982;2023-02-28T08:53:57;27.03;;;23.87;;
59089;SDS011;44878;50.102;18.982;2023-02-28T08:56:24;33.63;;;26.23;;
59089;SDS011;44878;50.102;18.982;2023-02-28T08:58:50;29.63;;;22.70;;
59089;SDS011;44878;50.102;18.982;2023-02-28T09:01:17;25.03;;;19.93;;
59089;SDS011;44878;50.102;18.982;2023-02-28T09:03:45;28.58;;;21.33;;
59089;SDS011;44878;50.102;18.982;2023-02-28T09:06:12;25.47;;;21.37;;
59089;SDS011;44878;50.102;18.982;2023-02-28T09:08:38;23.53;;;20.30;;
59089;SDS011;44878;50.102;18.982;2023-02-28T09:11:04;26.17;;;18.73;;
59089;SDS011;44878;50.102;18.982;2023-02-28T09:13:30;22.37;;;19.67;;
59089;SDS011;44878;50.102;18.982;2023-02-28T09:15:58;32.17;;;18.95;;
59089;SDS011;44878;50.102;18.982;2023-02-28T09:18:25;19.70;;;17.55;;
59089;SDS011;44878;50.102;18.982;2023-02-28T09:20:51;21.07;;;17.80;;
59089;SDS011;44878;50.102;18.982;2023-02-28T09:23:17;21.97;;;18.40;;
59089;SDS011;44878;50.102;18.982;2023-02-28T09:25:49;19.70;;;15.57;;
59089;SDS011;44878;50.102;18.982;2023-02-28T09:28:16;20.07;;;16.20;;
59089;SDS011;44878;50.102;18.982;2023-02-28T09:30:44;21.67;;;16.77;;
59089;SDS011;44878;50.102;18.982;2023-02-28T09:33:10;18.20;;;15.03;;
59089;SDS011;44878;50.102;18.982;2023-02-28T09:35:36;13.47;;;12.07;;
59089;SDS011;44878;50.102;18.982;2023-02-28T09:38:03;14.23;;;12.23;;
59089;SDS011;44878;50.102;18.982;2023-02-28T09:40:29;16.83;;;14.63;;
59089;SDS011;44878;50.102;18.982;2023-02-28T09:42:56;15.60;;;13.85;;
59089;SDS011;44878;50.102;18.982;2023-02-28T09:45:24;16.37;;;13.87;;
59089;SDS011;44878;50.102;18.982;2023-02-28T09:47:53;19.33;;;17.10;;
59089;SDS011;44878;50.102;18.982;2023-02-28T09:52:52;14.93;;;13.47;;
59089;SDS011;44878;50.102;18.982;2023-02-28T09:57:44;15.97;;;14.23;;
59089;SDS011;44878;50.102;18.982;2023-02-28T10:10:55;17.03;;;14.43;;
59089;SDS011;44878;50.102;18.982;2023-02-28T10:13:26;17.97;;;16.17;;
59089;SDS011;44878;50.102;18.982;2023-02-28T10:15:54;19.23;;;16.57;;
59089;SDS011;44878;50.102;18.982;2023-02-28T10:18:27;18.50;;;16.50;;
59089;SDS011;44878;50.102;18.982;2023-02-28T10:20:55;19.73;;;15.63;;
59089;SDS011;44878;50.102;18.982;2023-02-28T10:23:26;19.07;;;17.00;;
59089;SDS011;44878;50.102;18.982;2023-02-28T10:25:59;20.40;;;17.17;;
59089;SDS011;44878;50.102;18.982;2023-02-28T10:28:26;21.70;;;17.40;;
59089;SDS011;44878;50.102;18.982;2023-02-28T10:30:53;22.05;;;18.33;;
59089;SDS011;44878;50.102;18.982;2023-02-28T10:35:45;18.73;;;16.73;;
59089;SDS011;44878;50.102;18.982;2023-02-28T10:38:16;18.60;;;16.60;;
59089;SDS011;44878;50.102;18.982;2023-02-28T10:40:42;23.93;;;18.77;;
59089;SDS011;44878;50.102;18.982;2023-02-28T10:45:51;19.57;;;17.47;;
59089;SDS011;44878;50.102;18.982;2023-02-28T10:50:50;19.47;;;17.27;;
59089;SDS011;44878;50.102;18.982;2023-02-28T10:53:25;21.27;;;18.73;;
59089;SDS011;44878;50.102;18.982;2023-02-28T10:56:04;20.50;;;18.35;;
59089;SDS011;44878;50.102;18.982;2023-02-28T10:58:52;24.33;;;19.87;;
59089;SDS011;44878;50.102;18.982;2023-02-28T11:03:42;22.73;;;20.33;;
59089;SDS011;44878;50.102;18.982;2023-02-28T11:06:29;25.77;;;20.93;;
59089;SDS011;44878;50.102;18.982;2023-02-28T11:08:58;20.67;;;18.43;;
59089;SDS011;44878;50.102;18.982;2023-02-28T11:11:25;23.13;;;20.73;;
59089;SDS011;44878;50.102;18.982;2023-02-28T11:13:53;24.65;;;20.98;;
59089;SDS011;44878;50.102;18.982;2023-02-28T11:16:19;23.27;;;20.77;;
59089;SDS011;44878;50.102;18.982;2023-02-28T11:18:47;26.23;;;20.97;;
59089;SDS011;44878;50.102;18.982;2023-02-28T11:21:33;24.50;;;21.77;;
59089;SDS011;44878;50.102;18.982;2023-02-28T11:24:23;22.50;;;20.10;;
59089;SDS011;44878;50.102;18.982;2023-02-28T11:26:46;26.83;;;21.33;;
59089;SDS011;44878;50.102;18.982;2023-02-28T11:29:21;26.70;;;22.00;;
59089;SDS011;44878;50.102;18.982;2023-02-28T11:34:26;21.90;;;19.60;;
59089;SDS011;44878;50.102;18.982;2023-02-28T11:36:53;22.20;;;19.83;;
59089;SDS011;44878;50.102;18.982;2023-02-28T11:39:20;23.90;;;21.33;;
59089;SDS011;44878;50.102;18.982;2023-02-28T11:41:51;23.80;;;20.23;;
59089;SDS011;44878;50.102;18.982;2023-02-28T11:47:00;55.53;;;45.10;;
59089;SDS011;44878;50.102;18.982;2023-02-28T11:52:02;22.50;;;19.87;;
59089;SDS011;44878;50.102;18.982;2023-02-28T11:57:03;21.37;;;19.27;;
59089;SDS011;44878;50.102;18.982;2023-02-28T12:04:52;21.30;;;19.00;;
59089;SDS011;44878;50.102;18.982;2023-02-28T12:15:20;21.23;;;17.90;;
59089;SDS011;44878;50.102;18.982;2023-02-28T12:17:59;22.73;;;17.97;;
59089;SDS011;44878;50.102;18.982;2023-02-28T12:20:34;22.53;;;18.13;;
59089;SDS011;44878;50.102;18.982;2023-02-28T12:28:14;21.37;;;18.67;;
59089;SDS011;44878;50.102;18.982;2023-02-28T12:31:03;21.48;;;18.50;;
59089;SDS011;44878;50.102;18.982;2023-02-28T12:33:28;22.00;;;18.47;;
59089;SDS011;44878;50.102;18.982;2023-02-28T12:35:58;21.07;;;18.63;;
59089;SDS011;44878;50.102;18.982;2023-02-28T12:41:00;23.83;;;19.00;;
59089;SDS011;44878;50.102;18.982;2023-02-28T12:43:31;21.98;;;18.85;;
59089;SDS011;44878;50.102;18.982;2023-02-28T12:45:59;22.90;;;19.13;;
59089;SDS011;44878;50.102;18.982;2023-02-28T12:50:52;19.20;;;17.20;;
59089;SDS011;44878;50.102;18.982;2023-02-28T12:53:31;18.83;;;16.83;;
59089;SDS011;44878;50.102;18.982;2023-02-28T12:56:08;22.03;;;17.27;;
59089;SDS011;44878;50.102;18.982;2023-02-28T12:59:10;19.47;;;17.37;;
59089;SDS011;44878;50.102;18.982;2023-02-28T13:01:36;19.43;;;16.93;;
59089;SDS011;44878;50.102;18.982;2023-02-28T13:09:37;20.43;;;17.63;;
59089;SDS011;44878;50.102;18.982;2023-02-28T13:12:12;20.92;;;16.90;;
59089;SDS011;44878;50.102;18.982;2023-02-28T13:14:38;19.20;;;16.20;;
59089;SDS011;44878;50.102;18.982;2023-02-28T13:22:05;20.90;;;17.50;;
59089;SDS011;44878;50.102;18.982;2023-02-28T13:27:12;19.70;;;16.97;;
59089;SDS011;44878;50.102;18.982;2023-02-28T13:29:50;18.03;;;16.07;;
59089;SDS011;44878;50.102;18.982;2023-02-28T13:42:46;19.93;;;15.23;;
59089;SDS011;44878;50.102;18.982;2023-02-28T13:49:54;17.57;;;15.17;;
59089;SDS011;44878;50.102;18.982;2023-02-28T13:52:48;19.70;;;15.50;;
59089;SDS011;44878;50.102;18.982;2023-02-28T13:55:41;15.98;;;14.30;;
59089;SDS011;44878;50.102;18.982;2023-02-28T13:58:09;18.53;;;15.73;;
59089;SDS011;44878;50.102;18.982;2023-02-28T14:08:35;20.53;;;15.97;;
59089;SDS011;44878;50.102;18.982;2023-02-28T14:11:03;17.70;;;14.83;;
59089;SDS011;44878;50.102;18.982;2023-02-28T14:13:42;19.88;;;16.10;;
59089;SDS011;44878;50.102;18.982;2023-02-28T14:16:12;19.53;;;16.00;;
59089;SDS011;44878;50.102;18.982;2023-02-28T14:18:40;17.55;;;15.75;;
59089;SDS011;44878;50.102;18.982;2023-02-28T14:36:58;19.93;;;16.53;;
59089;SDS011;44878;50.102;18.982;2023-02-28T14:41:50;18.60;;;16.23;;
59089;SDS011;44878;50.102;18.982;2023-02-28T14:44:20;18.33;;;16.40;;
59089;SDS011;44878;50.102;18.982;2023-02-28T14:46:48;19.13;;;14.97;;
59089;SDS011;44878;50.102;18.982;2023-02-28T14:49:23;20.77;;;16.90;;
59089;SDS011;44878;50.102;18.982;2023-02-28T14:51:50;18.77;;;16.63;;
59089;SDS011;44878;50.102;18.982;2023-02-28T14:54:27;18.77;;;15.85;;
59089;SDS011;44878;50.102;18.982;2023-02-28T14:56:52;18.53;;;16.53;;
59089;SDS011;44878;50.102;18.982;2023-02-28T14:59:28;21.07;;;17.00;;
59089;SDS011;44878;50.102;18.982;2023-02-28T15:02:16;19.30;;;16.27;;
59089;SDS011;44878;50.102;18.982;2023-02-28T15:04:43;18.50;;;15.70;;
59089;SDS011;44878;50.102;18.982;2023-02-28T15:07:17;20.87;;;16.60;;
59089;SDS011;44878;50.102;18.982;2023-02-28T15:09:43;21.00;;;16.47;;
59089;SDS011;44878;50.102;18.982;2023-02-28T15:12:11;18.60;;;16.60;;
59089;SDS011;44878;50.102;18.982;2023-02-28T15:14:39;20.17;;;17.03;;
59089;SDS011;44878;50.102;18.982;2023-02-28T15:17:08;19.80;;;16.30;;
59089;SDS011;44878;50.102;18.982;2023-02-28T15:19:39;17.97;;;15.97;;
59089;SDS011;44878;50.102;18.982;2023-02-28T15:22:11;20.47;;;16.80;;
59089;SDS011;44878;50.102;18.982;2023-02-28T15:24:40;19.27;;;15.50;;
59089;SDS011;44878;50.102;18.982;2023-02-28T15:27:11;22.37;;;18.00;;
59089;SDS011;44878;50.102;18.982;2023-02-28T15:32:34;19.43;;;16.27;;
59089;SDS011;44878;50.102;18.982;2023-02-28T15:40:37;19.07;;;16.13;;
59089;SDS011;44878;50.102;18.982;2023-02-28T15:43:05;20.17;;;16.33;;
59089;SDS011;44878;50.102;18.982;2023-02-28T15:47:57;23.80;;;20.73;;
59089;SDS011;44878;50.102;18.982;2023-02-28T15:50:23;18.43;;;15.67;;
59089;SDS011;44878;50.102;18.982;2023-02-28T15:52:49;19.13;;;16.40;;
59089;SDS011;44878;50.102;18.982;2023-02-28T15:55:20;20.60;;;17.57;;
59089;SDS011;44878;50.102;18.982;2023-02-28T15:57:47;18.13;;;16.23;;
59089;SDS011;44878;50.102;18.982;2023-02-28T16:00:15;20.15;;;16.60;;
59089;SDS011;44878;50.102;18.982;2023-02-28T16:02:41;21.58;;;18.67;;
59089;SDS011;44878;50.102;18.982;2023-02-28T16:07:34;22.53;;;18.10;;
59089;SDS011;44878;50.102;18.982;2023-02-28T16:10:00;21.17;;;18.60;;
59089;SDS011;44878;50.102;18.982;2023-02-28T16:12:27;20.27;;;18.17;;
59089;SDS011;44878;50.102;18.982;2023-02-28T16:14:54;23.10;;;18.35;;
59089;SDS011;44878;50.102;18.982;2023-02-28T16:17:22;24.05;;;19.10;;
59089;SDS011;44878;50.102;18.982;2023-02-28T16:22:14;21.77;;;19.57;;
59089;SDS011;44878;50.102;18.982;2023-02-28T16:24:40;23.63;;;20.13;;
59089;SDS011;44878;50.102;18.982;2023-02-28T16:27:06;21.67;;;19.37;;
59089;SDS011;44878;50.102;18.982;2023-02-28T16:29:36;22.27;;;19.87;;
59089;SDS011;44878;50.102;18.982;2023-02-28T16:32:05;25.23;;;22.20;;
59089;SDS011;44878;50.102;18.982;2023-02-28T16:34:32;23.57;;;20.90;;
59089;SDS011;44878;50.102;18.982;2023-02-28T16:36:58;25.40;;;22.70;;
59089;SDS011;44878;50.102;18.982;2023-02-28T16:39:24;25.17;;;22.57;;
59089;SDS011;44878;50.102;18.982;2023-02-28T16:41:50;26.10;;;22.00;;
59089;SDS011;44878;50.102;18.982;2023-02-28T16:46:46;27.07;;;24.17;;
59089;SDS011;44878;50.102;18.982;2023-02-28T16:49:12;28.67;;;25.60;;
59089;SDS011;44878;50.102;18.982;2023-02-28T16:51:38;29.63;;;25.93;;
59089;SDS011;44878;50.102;18.982;2023-02-28T16:54:04;29.50;;;26.10;;
59089;SDS011;44878;50.102;18.982;2023-02-28T16:56:30;29.83;;;26.63;;
59089;SDS011;44878;50.102;18.982;2023-02-28T16:58:59;29.83;;;26.77;;
59089;SDS011;44878;50.102;18.982;2023-02-28T17:01:26;30.13;;;26.77;;
59089;SDS011;44878;50.102;18.982;2023-02-28T17:03:53;31.67;;;28.27;;
59089;SDS011;44878;50.102;18.982;2023-02-28T17:06:19;32.67;;;29.13;;
59089;SDS011;44878;50.102;18.982;2023-02-28T17:08:48;33.00;;;28.43;;
59089;SDS011;44878;50.102;18.982;2023-02-28T17:11:14;33.63;;;29.83;;
59089;SDS011;44878;50.102;18.982;2023-02-28T17:13:40;34.60;;;30.67;;
59089;SDS011;44878;50.102;18.982;2023-02-28T17:16:09;33.90;;;30.17;;
59089;SDS011;44878;50.102;18.982;2023-02-28T17:18:39;38.03;;;33.37;;